Aérodrome :
LOGIN :

S'inscrire | Disclaimer

   EN    FR    IT 

 










Légende :    VFR   VFR Marginal   IFR   IFR Intensif   IFR Très Intensif
Visi : 
Plafond : 
>= 8 km
>= 3000ft
5 à 8 km
1000 à 3000 ft
1500m à 5 km
500 à 1000 ft
800 à 1500m
200 à 500 ft
< 800m
< 200 ft
Symboles :   Orages  Brouillard  Fortes neiges  Fortes précipitations  Vent > 20 kt
SIGMETs :   Divers  Orages  Givrage  Turbulence  Onde Orograph.  Cendres Volcan.







- Altitude de l'aérodrome : 353 ft
- Code IATA : ZAG


LDZA - Zagreb Pleso

DERNIER METAR :
  • 270500Z VRB01KT 9999 -RA FEW010 OVC043 16/14 Q1012 NOSIG

METARs EXPIRÉS :
  • 270430Z 00000KT 9999 -RA BKN043 16/14 Q1012 NOSIG
  • 270400Z 19003KT 140V230 9999 -RA SCT042 15/14 Q1012 TEMPO SHRA FEW035TCU BKN040
  • 270330Z VRB02KT 9999 -RA FEW042 16/15 Q1012 TEMPO RA
  • 270300Z 00000KT 9999 -RA NSC 16/15 Q1012 TEMPO RA
  • 270230Z 00000KT CAVOK 16/15 Q1011 TEMPO RA
  • 270200Z 00000KT CAVOK 16/15 Q1012 TEMPO RA

TAF TAF LDZA
Valide du 27 à 00h jusqu'au 28 à 00h UTC


262325Z 2700/2800 VRB02KT 9999 -RA SCT040 TX20/2711Z TN16/2704Z
TEMPO 2711/2800 3000 -RA BR BKN010 OVC025
PROB40
TEMPO 2711/2800 SHRA SCT010 FEW025TCU BKN035
PROB30
TEMPO 2721/2800 TSRA SCT010 FEW025CB BKN035
ATIS : +385 1 6-259-214
Pas de NOTAMs connus pour ce terrain.



MET'MAP, la Météo Aéronautique d'un coup d'oeil ! - Copyright ORBIFLY Décembre 2007 - Disclaimer

ORBIFLY MET'MAP TEAM :

Programmation & Développement : Alexandra Zaïnal
Conception & Développement : Baudouin d'Aumeries
Co-Programmation & Développement : Marc-Olivier Méhu
Soutien technique & logistique : Manuel Goepfert

Contact : metmap@orbifly.com




SOURCES & CREDITS :

   NOAA